createdAt,value
2018-12-25T00:00:40.619Z,92.50
2018-12-25T00:03:10.753Z,91.90
2018-12-25T00:05:40.938Z,91.80
2018-12-25T00:08:11.083Z,91.50
2018-12-25T00:10:41.224Z,90.30
2018-12-25T00:13:11.381Z,89.90
2018-12-25T00:15:41.508Z,89.40
2018-12-25T00:18:11.654Z,89.10
2018-12-25T00:20:42.020Z,89.00
2018-12-25T00:23:12.183Z,90.10
2018-12-25T00:25:42.326Z,90.10
2018-12-25T00:28:12.451Z,90.30
2018-12-25T00:30:42.613Z,90.70
2018-12-25T00:33:12.744Z,91.20
2018-12-25T00:35:42.898Z,91.40
2018-12-25T00:38:13.040Z,91.00
2018-12-25T00:40:43.197Z,90.40
2018-12-25T00:43:13.354Z,90.40
2018-12-25T00:45:43.485Z,90.60
2018-12-25T00:48:13.630Z,91.20
2018-12-25T00:50:43.784Z,91.60
2018-12-25T00:53:13.920Z,89.80
2018-12-25T00:55:44.094Z,88.90
2018-12-25T00:58:14.227Z,89.00
2018-12-25T01:00:44.381Z,89.90
2018-12-25T01:03:14.539Z,91.00
2018-12-25T01:05:44.686Z,91.70
2018-12-25T01:08:14.858Z,92.70
2018-12-25T01:10:45.010Z,93.60
2018-12-25T01:13:15.157Z,94.70
2018-12-25T01:15:45.328Z,94.70
2018-12-25T01:18:15.456Z,93.60
2018-12-25T01:20:45.595Z,92.00
2018-12-25T01:23:15.746Z,93.20
2018-12-25T01:25:45.875Z,94.20
2018-12-25T01:28:16.051Z,94.90
2018-12-25T01:30:46.193Z,95.60
2018-12-25T01:33:16.326Z,96.30
2018-12-25T01:35:46.504Z,95.50
2018-12-25T01:38:16.637Z,95.10
2018-12-25T01:40:46.860Z,95.60
2018-12-25T01:43:17.018Z,94.20
2018-12-25T01:45:47.156Z,93.90
2018-12-25T01:48:17.300Z,94.90
2018-12-25T01:50:47.472Z,94.30
2018-12-25T01:53:17.606Z,93.40
2018-12-25T01:55:47.738Z,92.00
2018-12-25T01:58:17.903Z,89.60
2018-12-25T02:00:48.063Z,91.80
2018-12-25T02:03:18.219Z,93.00
2018-12-25T02:05:48.372Z,94.30
2018-12-25T02:08:18.512Z,95.60
2018-12-25T02:10:48.673Z,95.80
2018-12-25T02:13:18.812Z,96.60
2018-12-25T02:15:48.977Z,97.60
2018-12-25T02:18:19.209Z,96.20
2018-12-25T02:20:49.360Z,94.10
2018-12-25T02:23:19.532Z,93.10
2018-12-25T02:25:49.970Z,93.90
2018-12-25T02:28:20.047Z,94.40
2018-12-25T02:30:50.209Z,94.70
2018-12-25T02:33:20.359Z,94.10
2018-12-25T02:35:50.510Z,96.70
2018-12-25T02:38:20.683Z,94.30
2018-12-25T02:40:50.822Z,97.00
2018-12-25T02:43:20.960Z,96.30
2018-12-25T02:45:51.118Z,96.50
2018-12-25T02:48:21.280Z,97.50
2018-12-25T02:50:51.458Z,97.80
2018-12-25T02:53:21.591Z,97.50
2018-12-25T02:55:51.774Z,97.90
2018-12-25T02:58:21.936Z,95.60
2018-12-25T03:00:52.068Z,95.40
2018-12-25T03:03:22.227Z,90.80
2018-12-25T03:05:52.431Z,89.10
2018-12-25T03:08:22.569Z,90.00
2018-12-25T03:10:52.726Z,88.10
2018-12-25T03:13:22.892Z,89.60
2018-12-25T03:15:53.064Z,90.50
2018-12-25T03:18:23.233Z,91.80
2018-12-25T03:20:53.374Z,90.10
2018-12-25T03:23:23.545Z,89.00
2018-12-25T03:25:53.685Z,87.50
2018-12-25T03:28:23.817Z,87.20
2018-12-25T03:30:53.994Z,85.70
2018-12-25T03:33:24.138Z,87.00
2018-12-25T03:35:54.269Z,88.40
2018-12-25T03:38:24.447Z,88.10
2018-12-25T03:40:54.592Z,89.40
2018-12-25T03:43:24.728Z,89.50
2018-12-25T03:45:54.881Z,89.30
2018-12-25T03:48:25.204Z,86.80
2018-12-25T03:50:55.436Z,87.60
2018-12-25T03:53:25.605Z,86.90
2018-12-25T03:55:55.735Z,87.00
2018-12-25T03:58:25.888Z,88.30
2018-12-25T04:00:56.030Z,88.10
2018-12-25T04:03:26.185Z,89.50
2018-12-25T04:05:56.331Z,90.30
2018-12-25T04:08:26.524Z,88.60
2018-12-25T04:10:56.640Z,88.90
2018-12-25T04:13:26.773Z,89.10
2018-12-25T04:15:56.939Z,88.90
2018-12-25T04:18:27.080Z,89.80
2018-12-25T04:20:57.257Z,90.50
2018-12-25T04:23:27.414Z,92.10
2018-12-25T04:25:58.992Z,91.30
2018-12-25T04:28:29.115Z,88.60
2018-12-25T04:30:59.248Z,88.10
2018-12-25T04:33:29.409Z,89.10
2018-12-25T04:35:59.585Z,87.20
2018-12-25T04:38:29.792Z,87.40
2018-12-25T04:40:59.948Z,86.30
2018-12-25T04:43:30.081Z,86.00
2018-12-25T04:46:00.249Z,86.00
2018-12-25T04:48:30.385Z,86.30
2018-12-25T04:51:00.538Z,86.60
2018-12-25T04:53:30.680Z,87.90
2018-12-25T04:56:00.854Z,87.40
2018-12-25T04:58:31.013Z,87.50
2018-12-25T05:01:01.147Z,88.00
2018-12-25T05:03:31.325Z,88.20
2018-12-25T05:06:01.458Z,88.00
2018-12-25T05:08:31.615Z,86.10
2018-12-25T05:11:01.751Z,85.70
2018-12-25T05:13:31.896Z,83.50
2018-12-25T05:16:02.037Z,82.80
2018-12-25T05:18:32.169Z,83.60
2018-12-25T05:21:02.340Z,83.70
2018-12-25T05:23:32.499Z,84.60
2018-12-25T05:26:02.667Z,86.60
2018-12-25T05:28:32.808Z,85.20
2018-12-25T05:31:02.964Z,85.40
2018-12-25T05:33:33.119Z,84.00
2018-12-25T05:36:03.289Z,85.00
2018-12-25T05:38:33.451Z,85.10
2018-12-25T05:41:03.603Z,82.50
2018-12-25T05:43:53.107Z,82.50
2018-12-25T05:46:23.270Z,82.70
2018-12-25T05:48:53.422Z,83.00
2018-12-25T05:53:49.298Z,83.20
2018-12-25T05:56:19.453Z,85.80
2018-12-25T05:58:49.590Z,82.70
2018-12-25T06:01:19.748Z,83.20
2018-12-25T06:03:49.895Z,84.70
2018-12-25T06:06:20.066Z,82.60
2018-12-25T06:08:50.230Z,81.10
2018-12-25T06:11:20.367Z,80.40
2018-12-25T06:13:50.530Z,80.50
2018-12-25T06:16:20.679Z,79.90
2018-12-25T06:18:50.853Z,80.10
2018-12-25T06:21:21.028Z,80.20
2018-12-25T06:23:51.183Z,80.80
2018-12-25T06:26:21.338Z,80.20
2018-12-25T06:28:51.501Z,80.90
2018-12-25T06:31:21.640Z,81.80
2018-12-25T06:33:51.800Z,81.30
2018-12-25T06:36:21.945Z,82.10
2018-12-25T06:38:52.116Z,83.20
2018-12-25T06:41:22.255Z,84.40
2018-12-25T06:43:52.416Z,84.60
2018-12-25T06:46:22.584Z,84.50
2018-12-25T06:48:52.768Z,83.00
2018-12-25T06:51:22.896Z,84.10
2018-12-25T06:53:53.057Z,82.40
2018-12-25T06:56:23.184Z,83.60
2018-12-25T06:58:53.366Z,83.40
2018-12-25T07:01:23.504Z,81.50
2018-12-25T07:03:53.651Z,80.70
2018-12-25T07:06:23.803Z,81.10
2018-12-25T07:08:54.004Z,82.00
2018-12-25T07:11:24.234Z,80.90
2018-12-25T07:13:54.388Z,81.30
2018-12-25T07:16:24.534Z,81.40
2018-12-25T07:18:54.721Z,81.20
2018-12-25T07:21:24.857Z,80.90
2018-12-25T07:23:55.008Z,82.30
2018-12-25T07:26:25.203Z,81.50
2018-12-25T07:28:55.319Z,81.40
2018-12-25T07:31:25.469Z,82.20
2018-12-25T07:33:55.633Z,83.30
2018-12-25T07:36:25.819Z,82.70
2018-12-25T07:38:55.951Z,83.20
2018-12-25T07:41:26.113Z,84.40
2018-12-25T07:43:56.276Z,85.40
2018-12-25T07:46:26.421Z,86.30
2018-12-25T07:48:56.569Z,86.20
2018-12-25T07:51:26.701Z,83.40
2018-12-25T07:53:56.880Z,84.50
2018-12-25T07:56:27.034Z,84.40
2018-12-25T07:58:57.192Z,84.20
2018-12-25T08:01:27.347Z,84.90
2018-12-25T08:03:57.496Z,83.10
2018-12-25T08:06:27.653Z,82.50
2018-12-25T08:08:57.783Z,83.70
2018-12-25T08:11:27.948Z,83.70
2018-12-25T08:13:58.087Z,83.30
2018-12-25T08:16:28.227Z,84.50
2018-12-25T08:18:58.408Z,85.70
2018-12-25T08:21:29.310Z,86.60
2018-12-25T08:23:59.767Z,87.80
2018-12-25T08:26:29.962Z,87.10
2018-12-25T08:29:00.127Z,89.70
2018-12-25T08:31:30.268Z,88.40
2018-12-25T08:34:00.398Z,89.00
2018-12-25T08:36:30.574Z,89.80
2018-12-25T08:39:00.706Z,89.60
2018-12-25T08:41:30.953Z,88.90
2018-12-25T08:44:01.110Z,88.60
2018-12-25T08:46:31.257Z,87.30
2018-12-25T08:49:01.422Z,87.90
2018-12-25T08:51:37.573Z,87.10
2018-12-25T08:54:03.403Z,86.00
2018-12-25T08:56:33.660Z,86.40
2018-12-25T08:59:03.897Z,87.30
2018-12-25T09:01:34.131Z,86.50
2018-12-25T09:04:04.314Z,86.70
2018-12-25T09:06:34.522Z,85.20
2018-12-25T09:09:06.653Z,86.80
2018-12-25T09:11:36.802Z,87.70
2018-12-25T09:14:06.974Z,86.70
2018-12-25T09:16:37.120Z,87.40
2018-12-25T09:19:07.297Z,87.20
2018-12-25T09:21:37.518Z,86.90
2018-12-25T09:24:07.667Z,86.20
2018-12-25T09:26:38.002Z,85.20
2018-12-25T09:33:42.708Z,83.10
2018-12-25T09:42:40.481Z,84.80
2018-12-25T09:45:10.714Z,82.70
2018-12-25T09:47:40.972Z,83.30
2018-12-25T09:54:24.642Z,83.40
2018-12-25T09:56:54.786Z,84.20
2018-12-25T09:59:26.986Z,84.70
2018-12-25T10:01:56.788Z,86.00
2018-12-25T10:04:26.926Z,85.00
2018-12-25T10:06:57.076Z,83.90
2018-12-25T10:09:27.223Z,83.50
2018-12-25T10:11:57.439Z,82.30
2018-12-25T10:14:27.599Z,83.20
2018-12-25T10:16:57.741Z,81.60
2018-12-25T10:19:27.882Z,81.40
2018-12-25T10:22:02.988Z,81.40
2018-12-25T10:24:29.876Z,81.50
2018-12-25T10:27:00.059Z,81.70
2018-12-25T10:29:30.199Z,81.60
2018-12-25T10:32:00.368Z,80.40
2018-12-25T10:34:30.525Z,79.60
2018-12-25T10:37:00.660Z,80.50
2018-12-25T10:39:30.825Z,77.70
2018-12-25T10:42:00.965Z,77.50
2018-12-25T10:44:31.120Z,78.70
2018-12-25T10:47:01.264Z,78.60
2018-12-25T10:49:31.422Z,78.90
2018-12-25T10:52:01.583Z,78.00
2018-12-25T10:54:31.727Z,78.20
2018-12-25T10:57:01.889Z,78.40
2018-12-25T10:59:32.049Z,78.10
2018-12-25T11:02:02.192Z,77.50
2018-12-25T11:04:32.509Z,77.30
2018-12-25T11:07:02.662Z,77.70
2018-12-25T11:09:32.787Z,77.00
2018-12-25T11:12:02.967Z,76.60
2018-12-25T11:14:33.092Z,74.90
2018-12-25T11:17:03.232Z,73.50
2018-12-25T11:19:33.465Z,73.30
2018-12-25T11:22:03.593Z,73.40
2018-12-25T11:24:33.733Z,73.60
2018-12-25T11:27:03.890Z,74.00
2018-12-25T11:29:34.053Z,74.60
2018-12-25T11:32:04.187Z,74.10
2018-12-25T11:34:34.323Z,74.80
2018-12-25T11:37:04.489Z,74.60
2018-12-25T11:39:34.677Z,74.70
2018-12-25T11:42:04.807Z,73.40
2018-12-25T11:44:34.946Z,73.40
2018-12-25T11:47:05.101Z,71.60
2018-12-25T11:49:35.251Z,72.70
2018-12-25T11:52:05.404Z,72.30
2018-12-25T11:54:35.551Z,72.20
2018-12-25T11:57:05.729Z,70.50
2018-12-25T11:59:35.848Z,69.90
2018-12-25T12:02:05.982Z,69.60
2018-12-25T12:04:36.129Z,69.30
2018-12-25T12:07:06.259Z,69.00
2018-12-25T12:09:36.419Z,67.50
2018-12-25T12:12:06.565Z,67.50
2018-12-25T12:14:36.740Z,68.20
2018-12-25T12:17:06.895Z,68.70
2018-12-25T12:19:37.061Z,68.80
2018-12-25T12:22:07.180Z,70.20
2018-12-25T12:24:37.335Z,69.30
2018-12-25T12:27:07.496Z,68.00
2018-12-25T12:29:37.621Z,68.70
2018-12-25T12:32:07.756Z,69.60
2018-12-25T12:34:37.924Z,69.20
2018-12-25T12:37:08.051Z,68.50
2018-12-25T12:39:38.192Z,68.40
2018-12-25T12:42:08.351Z,66.30
2018-12-25T12:44:38.492Z,67.40
2018-12-25T12:47:08.647Z,68.30
2018-12-25T12:49:38.823Z,66.50
2018-12-25T12:52:09.001Z,67.80
2018-12-25T12:54:39.123Z,68.50
2018-12-25T12:57:09.295Z,68.20
2018-12-25T12:59:39.447Z,66.70
2018-12-25T13:02:09.587Z,65.80
2018-12-25T13:04:39.750Z,66.90
2018-12-25T13:07:09.882Z,66.90
2018-12-25T13:09:40.021Z,67.50
2018-12-25T13:12:10.177Z,68.30
2018-12-25T13:14:40.312Z,68.10
2018-12-25T13:17:10.472Z,67.40
2018-12-25T13:19:40.626Z,67.90
2018-12-25T13:22:10.783Z,68.00
2018-12-25T13:24:40.945Z,68.10
2018-12-25T13:27:11.082Z,69.00
2018-12-25T13:29:41.249Z,69.20
2018-12-25T13:32:11.379Z,69.20
2018-12-25T13:34:41.624Z,69.20
2018-12-25T13:37:11.782Z,68.90
2018-12-25T13:39:41.921Z,68.60
2018-12-25T13:42:12.052Z,69.60
2018-12-25T13:44:42.218Z,68.80
2018-12-25T13:47:12.382Z,69.70
2018-12-25T13:49:42.503Z,70.50
2018-12-25T13:52:12.635Z,69.40
2018-12-25T13:54:42.793Z,70.10
2018-12-25T13:57:12.978Z,69.80
2018-12-25T13:59:43.135Z,70.30
2018-12-25T14:02:13.293Z,70.20
2018-12-25T14:04:43.468Z,70.80
2018-12-25T14:07:13.625Z,70.10
2018-12-25T14:09:43.766Z,71.20
2018-12-25T14:12:13.917Z,71.20
2018-12-25T14:14:44.053Z,71.40
2018-12-25T14:17:14.217Z,71.40
2018-12-25T14:19:44.392Z,70.60
2018-12-25T14:22:14.523Z,70.90
2018-12-25T14:24:44.662Z,70.70
2018-12-25T14:27:14.811Z,71.60
2018-12-25T14:29:44.996Z,71.40
2018-12-25T14:32:15.127Z,71.90
2018-12-25T14:34:45.289Z,72.70
2018-12-25T14:37:15.453Z,72.70
2018-12-25T14:39:45.594Z,72.90
2018-12-25T14:42:15.738Z,73.60
2018-12-25T14:44:45.925Z,73.50
2018-12-25T14:47:16.026Z,73.50
2018-12-25T14:49:46.157Z,73.70
2018-12-25T14:52:16.341Z,72.80
2018-12-25T14:54:46.479Z,71.50
2018-12-25T14:57:16.616Z,72.60
2018-12-25T14:59:46.773Z,73.40
2018-12-25T15:02:16.906Z,73.80
2018-12-25T15:04:47.142Z,73.40
2018-12-25T15:07:17.383Z,72.40
2018-12-25T15:09:47.486Z,72.80
2018-12-25T15:12:17.671Z,73.40
2018-12-25T15:14:47.827Z,74.10
2018-12-25T15:17:17.989Z,73.70
2018-12-25T15:19:48.156Z,73.60
2018-12-25T15:22:18.333Z,73.50
2018-12-25T15:24:48.523Z,74.20
2018-12-25T15:27:18.711Z,73.50
2018-12-25T15:29:48.822Z,74.10
2018-12-25T15:32:18.959Z,73.20
2018-12-25T15:34:49.113Z,74.00
2018-12-25T15:37:19.296Z,74.00
2018-12-25T15:39:49.428Z,74.80
2018-12-25T15:42:19.620Z,74.70
2018-12-25T15:44:49.806Z,74.60
2018-12-25T15:47:19.941Z,75.00
2018-12-25T15:49:50.069Z,75.00
2018-12-25T15:52:20.231Z,74.10
2018-12-25T15:54:50.374Z,74.90
2018-12-25T15:57:20.549Z,75.90
2018-12-25T15:59:50.715Z,76.70
2018-12-25T16:02:20.847Z,77.50
2018-12-25T16:04:51.005Z,78.20
2018-12-25T16:07:21.154Z,78.20
2018-12-25T16:09:51.300Z,77.40
2018-12-25T16:12:21.525Z,79.10
2018-12-25T16:14:51.672Z,78.40
2018-12-25T16:17:21.832Z,77.80
2018-12-25T16:19:51.985Z,77.80
2018-12-25T16:22:22.119Z,77.70
2018-12-25T16:24:52.298Z,78.60
2018-12-25T16:27:22.434Z,79.40
2018-12-25T16:29:52.692Z,80.10
2018-12-25T16:32:22.846Z,80.50
2018-12-25T16:34:53.004Z,80.10
2018-12-25T16:37:23.168Z,81.00
2018-12-25T16:39:53.314Z,81.60
2018-12-25T16:42:23.447Z,80.10
2018-12-25T16:44:53.602Z,80.60
2018-12-25T16:47:23.768Z,81.10
2018-12-25T16:49:53.911Z,82.10
2018-12-25T16:52:24.069Z,82.50
2018-12-25T16:54:54.209Z,83.80
2018-12-25T16:57:24.385Z,83.20
2018-12-25T16:59:54.526Z,82.80
2018-12-25T17:02:24.693Z,83.50
2018-12-25T17:04:54.834Z,82.50
2018-12-25T17:07:24.973Z,82.40
2018-12-25T17:09:55.149Z,82.50
2018-12-25T17:12:25.283Z,82.80
2018-12-25T17:14:55.451Z,81.40
2018-12-25T17:17:25.604Z,82.70
2018-12-25T17:19:55.746Z,84.10
2018-12-25T17:22:25.894Z,83.40
2018-12-25T17:24:56.027Z,85.20
2018-12-25T17:27:26.206Z,84.80
2018-12-25T17:29:56.349Z,85.90
2018-12-25T17:32:26.981Z,84.00
2018-12-25T17:34:57.157Z,84.90
2018-12-25T17:37:27.283Z,83.90
2018-12-25T17:39:57.420Z,84.50
2018-12-25T17:42:27.597Z,85.20
2018-12-25T17:44:57.754Z,85.60
2018-12-25T17:47:27.870Z,85.30
2018-12-25T17:49:58.042Z,86.20
2018-12-25T17:52:28.206Z,86.30
2018-12-25T17:54:58.339Z,86.40
2018-12-25T17:57:28.504Z,85.40
2018-12-25T17:59:58.670Z,87.00
2018-12-25T18:02:28.804Z,86.70
2018-12-25T18:04:58.947Z,87.00
2018-12-25T18:07:29.129Z,86.60
2018-12-25T18:09:59.263Z,87.40
2018-12-25T18:12:29.422Z,87.40
2018-12-25T18:14:59.602Z,86.50
2018-12-25T18:17:29.730Z,85.00
2018-12-25T18:19:59.879Z,85.90
2018-12-25T18:22:30.014Z,84.30
2018-12-25T18:25:00.270Z,83.90
2018-12-25T18:27:30.400Z,83.70
2018-12-25T18:30:00.659Z,83.00
2018-12-25T18:32:30.806Z,84.30
2018-12-25T18:35:00.943Z,84.30
2018-12-25T18:37:31.099Z,86.10
2018-12-25T18:40:01.269Z,86.80
2018-12-25T18:42:31.455Z,86.00
2018-12-25T18:45:01.590Z,86.50
2018-12-25T18:47:31.741Z,86.70
2018-12-25T18:50:01.915Z,88.20
2018-12-25T18:52:32.038Z,88.50
2018-12-25T18:55:02.209Z,87.40
2018-12-25T18:57:32.350Z,87.80
2018-12-25T19:00:02.525Z,89.00
2018-12-25T19:02:32.674Z,90.20
2018-12-25T19:05:02.836Z,91.00
2018-12-25T19:07:32.975Z,90.10
2018-12-25T19:10:03.294Z,91.40
2018-12-25T19:12:33.446Z,90.90
2018-12-25T19:15:09.879Z,91.80
2018-12-25T19:17:40.042Z,92.60
2018-12-25T19:20:10.386Z,93.40
2018-12-25T19:22:40.558Z,93.20
2018-12-25T19:25:10.729Z,94.70
2018-12-25T19:27:40.895Z,94.00
2018-12-25T19:30:18.621Z,93.30
2018-12-25T19:32:48.803Z,93.80
2018-12-25T19:35:18.945Z,93.90
2018-12-25T19:37:49.109Z,94.10
2018-12-25T19:40:19.260Z,93.60
2018-12-25T19:42:49.472Z,93.40
2018-12-25T19:45:19.812Z,91.90
2018-12-25T19:47:49.994Z,91.60
2018-12-25T19:50:20.132Z,91.80
2018-12-25T19:52:50.263Z,91.60
2018-12-25T19:55:20.428Z,92.10
2018-12-25T19:57:50.563Z,90.80
2018-12-25T20:00:20.759Z,89.90
2018-12-25T20:02:54.008Z,88.50
2018-12-25T20:05:59.071Z,89.70
2018-12-25T20:09:04.330Z,87.90
2018-12-25T20:12:04.237Z,88.90
2018-12-25T20:14:57.135Z,88.70
2018-12-25T20:17:47.000Z,89.20
2018-12-25T20:20:40.941Z,90.40
2018-12-25T20:23:33.262Z,91.00
2018-12-25T20:26:42.917Z,90.90
2018-12-25T20:29:38.381Z,90.90
2018-12-25T20:32:42.810Z,91.50
2018-12-25T20:35:35.292Z,91.50
2018-12-25T20:38:32.073Z,91.30
2018-12-25T20:41:32.498Z,91.60
2018-12-25T20:44:25.315Z,92.00
2018-12-25T20:47:31.652Z,91.40
2018-12-25T20:50:58.291Z,91.10
2018-12-25T20:53:58.229Z,89.40
2018-12-25T20:56:52.233Z,89.10
2018-12-25T20:59:53.076Z,90.80
2018-12-25T21:02:27.923Z,91.10
2018-12-25T21:05:23.905Z,92.00
2018-12-25T21:08:25.798Z,92.60
2018-12-25T21:11:42.048Z,91.50
2018-12-25T21:14:54.228Z,92.50
2018-12-25T21:17:54.613Z,92.40
2018-12-25T21:20:49.806Z,93.40
2018-12-25T21:24:14.094Z,94.40
2018-12-25T21:27:32.335Z,95.20
2018-12-25T21:30:04.884Z,96.10
2018-12-25T21:32:35.778Z,95.40
2018-12-25T21:35:19.071Z,96.30
2018-12-25T21:37:49.835Z,95.10
2018-12-25T21:40:20.158Z,96.00
2018-12-25T21:42:51.494Z,97.00
2018-12-25T21:45:21.643Z,95.90
2018-12-25T21:47:51.978Z,97.20
2018-12-25T21:50:23.187Z,95.20
2018-12-25T21:52:53.781Z,93.70
2018-12-25T21:55:23.912Z,92.40
2018-12-25T21:57:54.851Z,94.60
2018-12-25T22:00:25.002Z,94.90
2018-12-25T22:02:55.333Z,95.30
2018-12-25T22:05:25.544Z,97.00
2018-12-25T22:07:55.695Z,95.00
2018-12-25T22:10:25.837Z,95.10
2018-12-25T22:12:55.976Z,94.60
2018-12-25T22:15:26.149Z,95.70
2018-12-25T22:17:56.270Z,96.50
2018-12-25T22:20:26.424Z,96.80
2018-12-25T22:22:56.592Z,97.60
2018-12-25T22:25:27.255Z,98.40
2018-12-25T22:27:57.685Z,99.10
2018-12-25T22:30:27.909Z,99.90
2018-12-25T22:32:58.065Z,99.90
2018-12-25T22:35:28.220Z,99.90
2018-12-25T22:37:58.386Z,99.90
2018-12-25T22:40:28.550Z,99.90
2018-12-25T22:42:58.696Z,99.90
2018-12-25T22:45:28.828Z,99.90
2018-12-25T22:47:59.012Z,99.90
2018-12-25T22:50:29.197Z,99.90
2018-12-25T22:52:59.481Z,99.90
2018-12-25T22:55:35.714Z,99.90
2018-12-25T22:58:01.488Z,99.90
2018-12-25T23:00:31.644Z,99.90
2018-12-25T23:03:01.796Z,99.90
2018-12-25T23:05:31.930Z,99.90
2018-12-25T23:08:02.088Z,99.90
2018-12-25T23:10:32.252Z,99.90
2018-12-25T23:13:02.376Z,99.90
2018-12-25T23:15:32.598Z,99.90
2018-12-25T23:18:02.734Z,99.90
2018-12-25T23:20:32.892Z,99.90
2018-12-25T23:23:03.049Z,99.90
2018-12-25T23:25:33.193Z,99.90
2018-12-25T23:28:03.337Z,99.90
2018-12-25T23:30:33.503Z,99.90
2018-12-25T23:33:03.633Z,99.90
2018-12-25T23:35:33.792Z,99.90
2018-12-25T23:38:03.937Z,99.90
2018-12-25T23:40:34.191Z,99.90
2018-12-25T23:43:04.320Z,99.90
2018-12-25T23:45:34.466Z,99.90
2018-12-25T23:48:04.620Z,99.90
2018-12-25T23:50:34.786Z,99.90
2018-12-25T23:53:04.944Z,99.90
2018-12-25T23:55:35.107Z,99.90
2018-12-25T23:58:05.351Z,99.90
